Fairview Heights, Illinois
Current Conditions -  °F | °C
As of 2:53 AM on Monday 20 Oct 2014 (Local Time) from KCPS Reporting Station
Overcast Overcast  
Wind Chill: 56°   Ceiling: 10000
Heat Index: 56°   Visibility: 10mi
Dew Point: 47°   Wind: 5mph
Humidity: 72%   Direction: 190°S
Pressure: 29.99"   Gusts: NA
Location:  38.6°N, 90.01°W
Report Text: KCPS 200753Z AUTO 19004KT 10SM OVC100 13/08 A2999 RMK AO2 SLP156 T01330083 $
Loading
Personal Weather Stations






























Interactive Weather Map
Tropical Storm Tracking
New forecast layout! Learn more

10-Day Weather Forecast

Advertisements
Track Severe Weather on mobile